Bruce Mines, Canada
Current Conditions -  °F | °C
As of 6:55 AM on Monday 22 Dec 2014 (Local Time) from KDRM Reporting Station
Overcast Overcast  
Wind Chill: -4°   Ceiling: 5000
Heat Index:   Visibility: 10mi
Dew Point: -2°   Wind: 9mph
Humidity: 85%   Direction: 160°SSE
Pressure: 30.09"   Gusts: NA
Location:  46.3°N, 83.79°W
Report Text: KDRM 221155Z AUTO 16008KT 10SM OVC050 00/M02 A3009 RMK AO2 T00021020 10006 20002
Loading
Personal Weather Stations






























Interactive Weather Map New forecast layout! Learn more

10-Day Weather Forecast

Advertisements
Track Severe Weather on mobile